sensor_id;sensor_type;location;lat;lon;timestamp;P1;durP1;ratioP1;P2;durP2;ratioP2
10275;SDS011;5183;51.190;6.820;2024-02-16T00:01:57;3.73;;;2.10;;
10275;SDS011;5183;51.190;6.820;2024-02-16T00:04:24;5.23;;;2.53;;
10275;SDS011;5183;51.190;6.820;2024-02-16T00:06:51;5.43;;;2.50;;
10275;SDS011;5183;51.190;6.820;2024-02-16T00:09:17;4.70;;;2.40;;
10275;SDS011;5183;51.190;6.820;2024-02-16T00:11:44;3.70;;;2.30;;
10275;SDS011;5183;51.190;6.820;2024-02-16T00:14:12;4.90;;;2.60;;
10275;SDS011;5183;51.190;6.820;2024-02-16T00:16:40;5.17;;;1.93;;
10275;SDS011;5183;51.190;6.820;2024-02-16T00:19:07;2.97;;;2.00;;
10275;SDS011;5183;51.190;6.820;2024-02-16T00:21:34;3.13;;;2.10;;
10275;SDS011;5183;51.190;6.820;2024-02-16T00:24:01;3.70;;;2.40;;
10275;SDS011;5183;51.190;6.820;2024-02-16T00:26:28;5.90;;;2.20;;
10275;SDS011;5183;51.190;6.820;2024-02-16T00:28:55;3.83;;;2.10;;
10275;SDS011;5183;51.190;6.820;2024-02-16T00:31:22;3.53;;;2.40;;
10275;SDS011;5183;51.190;6.820;2024-02-16T00:33:51;3.00;;;2.00;;
10275;SDS011;5183;51.190;6.820;2024-02-16T00:36:18;3.50;;;2.10;;
10275;SDS011;5183;51.190;6.820;2024-02-16T00:38:44;4.13;;;2.10;;
10275;SDS011;5183;51.190;6.820;2024-02-16T00:41:16;4.83;;;2.50;;
10275;SDS011;5183;51.190;6.820;2024-02-16T00:43:45;3.57;;;2.30;;
10275;SDS011;5183;51.190;6.820;2024-02-16T00:46:11;3.23;;;2.00;;
10275;SDS011;5183;51.190;6.820;2024-02-16T00:48:38;4.10;;;2.30;;
10275;SDS011;5183;51.190;6.820;2024-02-16T00:51:07;3.23;;;2.30;;
10275;SDS011;5183;51.190;6.820;2024-02-16T00:53:33;4.33;;;2.73;;
10275;SDS011;5183;51.190;6.820;2024-02-16T00:56:00;4.23;;;2.47;;
10275;SDS011;5183;51.190;6.820;2024-02-16T00:58:28;4.40;;;2.10;;
10275;SDS011;5183;51.190;6.820;2024-02-16T01:00:54;5.00;;;2.43;;
10275;SDS011;5183;51.190;6.820;2024-02-16T01:03:21;3.10;;;2.30;;
10275;SDS011;5183;51.190;6.820;2024-02-16T01:05:48;4.30;;;2.00;;
10275;SDS011;5183;51.190;6.820;2024-02-16T01:08:16;3.63;;;2.20;;
10275;SDS011;5183;51.190;6.820;2024-02-16T01:10:43;3.90;;;2.13;;
10275;SDS011;5183;51.190;6.820;2024-02-16T01:13:11;3.53;;;2.00;;
10275;SDS011;5183;51.190;6.820;2024-02-16T01:15:38;3.97;;;2.30;;
10275;SDS011;5183;51.190;6.820;2024-02-16T01:18:06;3.67;;;2.20;;
10275;SDS011;5183;51.190;6.820;2024-02-16T01:20:33;3.30;;;2.43;;
10275;SDS011;5183;51.190;6.820;2024-02-16T01:23:00;2.73;;;1.90;;
10275;SDS011;5183;51.190;6.820;2024-02-16T01:25:29;4.17;;;2.40;;
10275;SDS011;5183;51.190;6.820;2024-02-16T01:27:56;7.47;;;2.13;;
10275;SDS011;5183;51.190;6.820;2024-02-16T01:30:22;3.77;;;2.10;;
10275;SDS011;5183;51.190;6.820;2024-02-16T01:32:49;4.77;;;2.20;;
10275;SDS011;5183;51.190;6.820;2024-02-16T01:35:16;3.03;;;2.10;;
10275;SDS011;5183;51.190;6.820;2024-02-16T01:37:43;4.67;;;2.30;;
10275;SDS011;5183;51.190;6.820;2024-02-16T01:40:10;3.27;;;2.17;;
10275;SDS011;5183;51.190;6.820;2024-02-16T01:42:40;3.63;;;2.20;;
10275;SDS011;5183;51.190;6.820;2024-02-16T01:45:08;3.07;;;2.37;;
10275;SDS011;5183;51.190;6.820;2024-02-16T01:47:36;4.00;;;2.10;;
10275;SDS011;5183;51.190;6.820;2024-02-16T01:50:03;3.90;;;2.47;;
10275;SDS011;5183;51.190;6.820;2024-02-16T01:52:32;3.50;;;2.17;;
10275;SDS011;5183;51.190;6.820;2024-02-16T01:55:01;3.23;;;2.20;;
10275;SDS011;5183;51.190;6.820;2024-02-16T01:57:29;2.83;;;2.27;;
10275;SDS011;5183;51.190;6.820;2024-02-16T01:59:58;3.20;;;2.27;;
10275;SDS011;5183;51.190;6.820;2024-02-16T02:02:25;3.10;;;2.50;;
10275;SDS011;5183;51.190;6.820;2024-02-16T02:04:52;4.77;;;2.30;;
10275;SDS011;5183;51.190;6.820;2024-02-16T02:07:24;3.80;;;2.13;;
10275;SDS011;5183;51.190;6.820;2024-02-16T02:09:52;5.53;;;2.23;;
10275;SDS011;5183;51.190;6.820;2024-02-16T02:12:19;3.17;;;2.00;;
10275;SDS011;5183;51.190;6.820;2024-02-16T02:14:46;3.03;;;2.20;;
10275;SDS011;5183;51.190;6.820;2024-02-16T02:17:14;3.57;;;2.67;;
10275;SDS011;5183;51.190;6.820;2024-02-16T02:19:41;3.97;;;2.27;;
10275;SDS011;5183;51.190;6.820;2024-02-16T02:22:12;4.87;;;2.27;;
10275;SDS011;5183;51.190;6.820;2024-02-16T02:24:40;3.67;;;2.13;;
10275;SDS011;5183;51.190;6.820;2024-02-16T02:27:07;3.77;;;2.23;;
10275;SDS011;5183;51.190;6.820;2024-02-16T02:29:34;4.17;;;2.30;;
10275;SDS011;5183;51.190;6.820;2024-02-16T02:32:01;3.40;;;2.40;;
10275;SDS011;5183;51.190;6.820;2024-02-16T02:34:28;4.57;;;2.60;;
10275;SDS011;5183;51.190;6.820;2024-02-16T02:36:54;6.73;;;2.63;;
10275;SDS011;5183;51.190;6.820;2024-02-16T02:39:23;4.87;;;2.60;;
10275;SDS011;5183;51.190;6.820;2024-02-16T02:41:49;5.10;;;2.60;;
10275;SDS011;5183;51.190;6.820;2024-02-16T02:44:17;5.17;;;2.70;;
10275;SDS011;5183;51.190;6.820;2024-02-16T02:46:44;5.23;;;2.43;;
10275;SDS011;5183;51.190;6.820;2024-02-16T02:49:12;2.93;;;2.20;;
10275;SDS011;5183;51.190;6.820;2024-02-16T02:51:38;4.93;;;2.33;;
10275;SDS011;5183;51.190;6.820;2024-02-16T02:54:05;4.63;;;2.60;;
10275;SDS011;5183;51.190;6.820;2024-02-16T02:56:33;4.80;;;2.50;;
10275;SDS011;5183;51.190;6.820;2024-02-16T02:59:00;5.83;;;2.60;;
10275;SDS011;5183;51.190;6.820;2024-02-16T03:01:27;3.00;;;2.20;;
10275;SDS011;5183;51.190;6.820;2024-02-16T03:03:54;3.00;;;2.50;;
10275;SDS011;5183;51.190;6.820;2024-02-16T03:06:23;3.20;;;2.00;;
10275;SDS011;5183;51.190;6.820;2024-02-16T03:08:49;4.00;;;2.57;;
10275;SDS011;5183;51.190;6.820;2024-02-16T03:11:16;4.10;;;2.70;;
10275;SDS011;5183;51.190;6.820;2024-02-16T03:13:44;3.30;;;2.63;;
10275;SDS011;5183;51.190;6.820;2024-02-16T03:16:11;3.30;;;2.57;;
10275;SDS011;5183;51.190;6.820;2024-02-16T03:18:39;3.70;;;2.40;;
10275;SDS011;5183;51.190;6.820;2024-02-16T03:21:06;3.90;;;2.40;;
10275;SDS011;5183;51.190;6.820;2024-02-16T03:23:33;6.37;;;2.60;;
10275;SDS011;5183;51.190;6.820;2024-02-16T03:26:00;3.17;;;2.50;;
10275;SDS011;5183;51.190;6.820;2024-02-16T03:28:26;3.27;;;2.30;;
10275;SDS011;5183;51.190;6.820;2024-02-16T03:30:55;4.80;;;2.97;;
10275;SDS011;5183;51.190;6.820;2024-02-16T03:33:21;4.77;;;2.83;;
10275;SDS011;5183;51.190;6.820;2024-02-16T03:35:48;3.47;;;2.40;;
10275;SDS011;5183;51.190;6.820;2024-02-16T03:38:15;4.80;;;2.50;;
10275;SDS011;5183;51.190;6.820;2024-02-16T03:40:42;4.23;;;2.40;;
10275;SDS011;5183;51.190;6.820;2024-02-16T03:43:08;4.40;;;2.73;;
10275;SDS011;5183;51.190;6.820;2024-02-16T03:45:36;4.00;;;2.30;;
10275;SDS011;5183;51.190;6.820;2024-02-16T03:48:05;3.43;;;2.37;;
10275;SDS011;5183;51.190;6.820;2024-02-16T03:50:32;3.77;;;2.30;;
10275;SDS011;5183;51.190;6.820;2024-02-16T03:53:00;5.53;;;2.90;;
10275;SDS011;5183;51.190;6.820;2024-02-16T03:55:27;3.67;;;2.60;;
10275;SDS011;5183;51.190;6.820;2024-02-16T03:57:54;5.67;;;2.70;;
10275;SDS011;5183;51.190;6.820;2024-02-16T04:00:20;5.17;;;2.70;;
10275;SDS011;5183;51.190;6.820;2024-02-16T04:02:47;5.23;;;2.83;;
10275;SDS011;5183;51.190;6.820;2024-02-16T04:05:15;3.03;;;2.40;;
10275;SDS011;5183;51.190;6.820;2024-02-16T04:07:42;4.20;;;3.00;;
10275;SDS011;5183;51.190;6.820;2024-02-16T04:10:09;5.17;;;2.80;;
10275;SDS011;5183;51.190;6.820;2024-02-16T04:12:36;4.90;;;3.20;;
10275;SDS011;5183;51.190;6.820;2024-02-16T04:15:03;4.50;;;2.97;;
10275;SDS011;5183;51.190;6.820;2024-02-16T04:17:30;5.43;;;2.70;;
10275;SDS011;5183;51.190;6.820;2024-02-16T04:19:57;5.47;;;2.90;;
10275;SDS011;5183;51.190;6.820;2024-02-16T04:22:25;4.07;;;2.70;;
10275;SDS011;5183;51.190;6.820;2024-02-16T04:24:52;5.40;;;3.03;;
10275;SDS011;5183;51.190;6.820;2024-02-16T04:27:19;5.40;;;3.20;;
10275;SDS011;5183;51.190;6.820;2024-02-16T04:29:46;4.57;;;2.80;;
10275;SDS011;5183;51.190;6.820;2024-02-16T04:32:12;4.10;;;2.63;;
10275;SDS011;5183;51.190;6.820;2024-02-16T04:34:39;4.47;;;3.10;;
10275;SDS011;5183;51.190;6.820;2024-02-16T04:37:06;4.73;;;2.80;;
10275;SDS011;5183;51.190;6.820;2024-02-16T04:39:34;7.00;;;2.80;;
10275;SDS011;5183;51.190;6.820;2024-02-16T04:42:01;5.97;;;2.73;;
10275;SDS011;5183;51.190;6.820;2024-02-16T04:44:28;5.10;;;2.80;;
10275;SDS011;5183;51.190;6.820;2024-02-16T04:46:54;4.30;;;2.50;;
10275;SDS011;5183;51.190;6.820;2024-02-16T04:49:21;4.33;;;2.50;;
10275;SDS011;5183;51.190;6.820;2024-02-16T04:51:48;4.37;;;2.73;;
10275;SDS011;5183;51.190;6.820;2024-02-16T04:54:15;5.67;;;3.00;;
10275;SDS011;5183;51.190;6.820;2024-02-16T04:56:43;4.07;;;2.90;;
10275;SDS011;5183;51.190;6.820;2024-02-16T04:59:10;4.53;;;2.80;;
10275;SDS011;5183;51.190;6.820;2024-02-16T05:01:37;3.87;;;2.93;;
10275;SDS011;5183;51.190;6.820;2024-02-16T05:04:04;5.13;;;3.03;;
10275;SDS011;5183;51.190;6.820;2024-02-16T05:06:31;6.03;;;3.43;;
10275;SDS011;5183;51.190;6.820;2024-02-16T05:08:59;4.63;;;3.10;;
10275;SDS011;5183;51.190;6.820;2024-02-16T05:11:25;5.30;;;3.10;;
10275;SDS011;5183;51.190;6.820;2024-02-16T05:13:56;4.40;;;2.63;;
10275;SDS011;5183;51.190;6.820;2024-02-16T05:16:23;4.10;;;2.63;;
10275;SDS011;5183;51.190;6.820;2024-02-16T05:18:50;4.00;;;2.67;;
10275;SDS011;5183;51.190;6.820;2024-02-16T05:21:17;4.87;;;2.93;;
10275;SDS011;5183;51.190;6.820;2024-02-16T05:23:44;6.00;;;3.20;;
10275;SDS011;5183;51.190;6.820;2024-02-16T05:26:11;3.57;;;2.63;;
10275;SDS011;5183;51.190;6.820;2024-02-16T05:28:38;3.10;;;2.57;;
10275;SDS011;5183;51.190;6.820;2024-02-16T05:31:13;3.77;;;3.00;;
10275;SDS011;5183;51.190;6.820;2024-02-16T05:33:43;3.90;;;2.80;;
10275;SDS011;5183;51.190;6.820;2024-02-16T05:36:11;3.93;;;2.80;;
10275;SDS011;5183;51.190;6.820;2024-02-16T05:38:37;6.03;;;3.00;;
10275;SDS011;5183;51.190;6.820;2024-02-16T05:41:08;3.80;;;2.93;;
10275;SDS011;5183;51.190;6.820;2024-02-16T05:43:36;4.50;;;3.37;;
10275;SDS011;5183;51.190;6.820;2024-02-16T05:46:03;4.07;;;2.93;;
10275;SDS011;5183;51.190;6.820;2024-02-16T05:48:33;6.20;;;3.23;;
10275;SDS011;5183;51.190;6.820;2024-02-16T05:51:03;4.40;;;2.90;;
10275;SDS011;5183;51.190;6.820;2024-02-16T05:53:31;4.70;;;3.20;;
10275;SDS011;5183;51.190;6.820;2024-02-16T05:55:58;5.33;;;3.30;;
10275;SDS011;5183;51.190;6.820;2024-02-16T05:58:25;4.20;;;2.90;;
10275;SDS011;5183;51.190;6.820;2024-02-16T06:00:52;4.30;;;2.90;;
10275;SDS011;5183;51.190;6.820;2024-02-16T06:03:20;5.23;;;2.90;;
10275;SDS011;5183;51.190;6.820;2024-02-16T06:05:49;4.83;;;3.13;;
10275;SDS011;5183;51.190;6.820;2024-02-16T06:08:16;5.27;;;3.47;;
10275;SDS011;5183;51.190;6.820;2024-02-16T06:10:43;4.83;;;3.20;;
10275;SDS011;5183;51.190;6.820;2024-02-16T06:13:16;6.17;;;3.60;;
10275;SDS011;5183;51.190;6.820;2024-02-16T06:15:43;4.23;;;3.20;;
10275;SDS011;5183;51.190;6.820;2024-02-16T06:18:09;4.93;;;3.97;;
10275;SDS011;5183;51.190;6.820;2024-02-16T06:20:36;4.90;;;3.53;;
10275;SDS011;5183;51.190;6.820;2024-02-16T06:23:05;5.93;;;3.70;;
10275;SDS011;5183;51.190;6.820;2024-02-16T06:25:32;4.73;;;3.30;;
10275;SDS011;5183;51.190;6.820;2024-02-16T06:27:59;6.03;;;3.70;;
10275;SDS011;5183;51.190;6.820;2024-02-16T06:30:26;6.13;;;3.07;;
10275;SDS011;5183;51.190;6.820;2024-02-16T06:32:53;5.03;;;2.83;;
10275;SDS011;5183;51.190;6.820;2024-02-16T06:35:20;5.90;;;2.83;;
10275;SDS011;5183;51.190;6.820;2024-02-16T06:37:47;5.67;;;3.00;;
10275;SDS011;5183;51.190;6.820;2024-02-16T06:40:15;5.67;;;3.30;;
10275;SDS011;5183;51.190;6.820;2024-02-16T06:42:42;4.87;;;2.97;;
10275;SDS011;5183;51.190;6.820;2024-02-16T06:45:09;6.33;;;3.60;;
10275;SDS011;5183;51.190;6.820;2024-02-16T06:47:36;6.30;;;3.63;;
10275;SDS011;5183;51.190;6.820;2024-02-16T06:50:03;4.10;;;3.37;;
10275;SDS011;5183;51.190;6.820;2024-02-16T06:52:32;8.50;;;2.90;;
10275;SDS011;5183;51.190;6.820;2024-02-16T06:54:59;5.20;;;3.37;;
10275;SDS011;5183;51.190;6.820;2024-02-16T06:57:27;5.23;;;3.20;;
10275;SDS011;5183;51.190;6.820;2024-02-16T06:59:54;4.33;;;3.23;;
10275;SDS011;5183;51.190;6.820;2024-02-16T07:02:22;9.27;;;5.63;;
10275;SDS011;5183;51.190;6.820;2024-02-16T07:04:50;6.17;;;3.60;;
10275;SDS011;5183;51.190;6.820;2024-02-16T07:07:16;5.07;;;3.30;;
10275;SDS011;5183;51.190;6.820;2024-02-16T07:09:44;8.13;;;4.00;;
10275;SDS011;5183;51.190;6.820;2024-02-16T07:12:10;5.40;;;3.50;;
10275;SDS011;5183;51.190;6.820;2024-02-16T07:14:39;4.93;;;3.30;;
10275;SDS011;5183;51.190;6.820;2024-02-16T07:17:06;5.73;;;3.17;;
10275;SDS011;5183;51.190;6.820;2024-02-16T07:19:34;5.47;;;3.00;;
10275;SDS011;5183;51.190;6.820;2024-02-16T07:22:02;5.97;;;3.30;;
10275;SDS011;5183;51.190;6.820;2024-02-16T07:24:31;4.30;;;3.10;;
10275;SDS011;5183;51.190;6.820;2024-02-16T07:26:58;5.87;;;3.47;;
10275;SDS011;5183;51.190;6.820;2024-02-16T07:29:26;6.40;;;3.10;;
10275;SDS011;5183;51.190;6.820;2024-02-16T07:31:55;5.83;;;3.30;;
10275;SDS011;5183;51.190;6.820;2024-02-16T07:34:22;6.77;;;3.47;;
10275;SDS011;5183;51.190;6.820;2024-02-16T07:36:49;6.60;;;3.20;;
10275;SDS011;5183;51.190;6.820;2024-02-16T07:39:17;5.73;;;3.37;;
10275;SDS011;5183;51.190;6.820;2024-02-16T07:41:43;6.23;;;3.30;;
10275;SDS011;5183;51.190;6.820;2024-02-16T07:44:10;4.53;;;2.80;;
10275;SDS011;5183;51.190;6.820;2024-02-16T07:46:40;4.50;;;3.10;;
10275;SDS011;5183;51.190;6.820;2024-02-16T07:49:12;5.90;;;3.20;;
10275;SDS011;5183;51.190;6.820;2024-02-16T07:51:39;5.47;;;3.27;;
10275;SDS011;5183;51.190;6.820;2024-02-16T07:54:06;4.47;;;3.17;;
10275;SDS011;5183;51.190;6.820;2024-02-16T07:56:34;6.77;;;3.27;;
10275;SDS011;5183;51.190;6.820;2024-02-16T07:59:00;3.50;;;2.93;;
10275;SDS011;5183;51.190;6.820;2024-02-16T08:01:27;5.50;;;3.23;;
10275;SDS011;5183;51.190;6.820;2024-02-16T08:03:54;5.30;;;3.40;;
10275;SDS011;5183;51.190;6.820;2024-02-16T08:06:26;5.20;;;2.97;;
10275;SDS011;5183;51.190;6.820;2024-02-16T08:08:53;4.30;;;2.80;;
10275;SDS011;5183;51.190;6.820;2024-02-16T08:11:20;5.30;;;3.60;;
10275;SDS011;5183;51.190;6.820;2024-02-16T08:13:46;4.13;;;3.50;;
10275;SDS011;5183;51.190;6.820;2024-02-16T08:16:13;7.17;;;4.83;;
10275;SDS011;5183;51.190;6.820;2024-02-16T08:18:42;5.60;;;3.50;;
10275;SDS011;5183;51.190;6.820;2024-02-16T08:21:10;4.43;;;3.40;;
10275;SDS011;5183;51.190;6.820;2024-02-16T08:23:38;9.17;;;4.17;;
10275;SDS011;5183;51.190;6.820;2024-02-16T08:26:05;7.97;;;4.00;;
10275;SDS011;5183;51.190;6.820;2024-02-16T08:28:32;4.30;;;3.10;;
10275;SDS011;5183;51.190;6.820;2024-02-16T08:30:59;8.00;;;3.40;;
10275;SDS011;5183;51.190;6.820;2024-02-16T08:33:26;3.70;;;3.07;;
10275;SDS011;5183;51.190;6.820;2024-02-16T08:35:52;5.63;;;3.77;;
10275;SDS011;5183;51.190;6.820;2024-02-16T08:38:19;6.93;;;5.17;;
10275;SDS011;5183;51.190;6.820;2024-02-16T08:40:47;7.70;;;4.90;;
10275;SDS011;5183;51.190;6.820;2024-02-16T08:43:17;6.40;;;3.40;;
10275;SDS011;5183;51.190;6.820;2024-02-16T08:45:44;5.30;;;3.30;;
10275;SDS011;5183;51.190;6.820;2024-02-16T08:48:10;6.93;;;3.33;;
10275;SDS011;5183;51.190;6.820;2024-02-16T08:50:37;5.20;;;3.70;;
10275;SDS011;5183;51.190;6.820;2024-02-16T08:53:04;6.03;;;3.90;;
10275;SDS011;5183;51.190;6.820;2024-02-16T08:55:31;4.47;;;3.43;;
10275;SDS011;5183;51.190;6.820;2024-02-16T08:57:59;6.30;;;3.60;;
10275;SDS011;5183;51.190;6.820;2024-02-16T09:00:27;6.30;;;3.53;;
10275;SDS011;5183;51.190;6.820;2024-02-16T09:02:54;7.43;;;3.13;;
10275;SDS011;5183;51.190;6.820;2024-02-16T09:05:23;5.90;;;3.20;;
10275;SDS011;5183;51.190;6.820;2024-02-16T09:07:49;4.47;;;3.50;;
10275;SDS011;5183;51.190;6.820;2024-02-16T09:10:16;7.17;;;3.37;;
10275;SDS011;5183;51.190;6.820;2024-02-16T09:12:43;6.03;;;3.50;;
10275;SDS011;5183;51.190;6.820;2024-02-16T09:15:12;5.20;;;3.47;;
10275;SDS011;5183;51.190;6.820;2024-02-16T09:17:39;7.20;;;3.87;;
10275;SDS011;5183;51.190;6.820;2024-02-16T09:20:06;7.10;;;3.27;;
10275;SDS011;5183;51.190;6.820;2024-02-16T09:22:34;6.10;;;2.90;;
10275;SDS011;5183;51.190;6.820;2024-02-16T09:25:01;7.30;;;4.03;;
10275;SDS011;5183;51.190;6.820;2024-02-16T09:27:28;5.70;;;3.30;;
10275;SDS011;5183;51.190;6.820;2024-02-16T09:29:56;7.87;;;3.40;;
10275;SDS011;5183;51.190;6.820;2024-02-16T09:32:24;6.57;;;3.40;;
10275;SDS011;5183;51.190;6.820;2024-02-16T09:34:51;6.07;;;3.17;;
10275;SDS011;5183;51.190;6.820;2024-02-16T09:37:19;5.27;;;3.33;;
10275;SDS011;5183;51.190;6.820;2024-02-16T09:39:46;5.60;;;3.57;;
10275;SDS011;5183;51.190;6.820;2024-02-16T09:42:13;6.00;;;3.67;;
10275;SDS011;5183;51.190;6.820;2024-02-16T09:44:41;6.23;;;3.20;;
10275;SDS011;5183;51.190;6.820;2024-02-16T09:47:10;6.83;;;3.30;;
10275;SDS011;5183;51.190;6.820;2024-02-16T09:49:39;5.83;;;3.50;;
10275;SDS011;5183;51.190;6.820;2024-02-16T09:52:07;5.87;;;3.37;;
10275;SDS011;5183;51.190;6.820;2024-02-16T09:54:37;5.77;;;3.70;;
10275;SDS011;5183;51.190;6.820;2024-02-16T09:57:04;7.27;;;3.87;;
10275;SDS011;5183;51.190;6.820;2024-02-16T09:59:31;7.97;;;4.10;;
10275;SDS011;5183;51.190;6.820;2024-02-16T10:02:01;7.67;;;3.90;;
10275;SDS011;5183;51.190;6.820;2024-02-16T10:04:28;6.53;;;3.80;;
10275;SDS011;5183;51.190;6.820;2024-02-16T10:06:57;8.47;;;3.50;;
10275;SDS011;5183;51.190;6.820;2024-02-16T10:09:24;6.17;;;3.37;;
10275;SDS011;5183;51.190;6.820;2024-02-16T10:11:51;7.63;;;3.80;;
10275;SDS011;5183;51.190;6.820;2024-02-16T10:14:18;5.67;;;3.47;;
10275;SDS011;5183;51.190;6.820;2024-02-16T10:16:45;11.00;;;3.63;;
10275;SDS011;5183;51.190;6.820;2024-02-16T10:19:13;7.60;;;3.93;;
10275;SDS011;5183;51.190;6.820;2024-02-16T10:21:40;7.10;;;3.50;;
10275;SDS011;5183;51.190;6.820;2024-02-16T10:24:10;6.90;;;3.70;;
10275;SDS011;5183;51.190;6.820;2024-02-16T10:26:40;5.93;;;3.63;;
10275;SDS011;5183;51.190;6.820;2024-02-16T10:29:09;6.30;;;3.60;;
10275;SDS011;5183;51.190;6.820;2024-02-16T10:31:36;6.80;;;3.77;;
10275;SDS011;5183;51.190;6.820;2024-02-16T10:34:04;6.83;;;3.63;;
10275;SDS011;5183;51.190;6.820;2024-02-16T10:36:32;9.30;;;3.93;;
10275;SDS011;5183;51.190;6.820;2024-02-16T10:39:01;8.50;;;4.40;;
10275;SDS011;5183;51.190;6.820;2024-02-16T10:41:33;5.87;;;3.70;;
10275;SDS011;5183;51.190;6.820;2024-02-16T10:44:00;7.90;;;4.03;;
10275;SDS011;5183;51.190;6.820;2024-02-16T10:46:28;4.27;;;3.60;;
10275;SDS011;5183;51.190;6.820;2024-02-16T10:48:55;9.17;;;4.57;;
10275;SDS011;5183;51.190;6.820;2024-02-16T10:51:24;6.20;;;4.17;;
10275;SDS011;5183;51.190;6.820;2024-02-16T10:53:55;7.53;;;3.60;;
10275;SDS011;5183;51.190;6.820;2024-02-16T10:56:27;6.63;;;3.73;;
10275;SDS011;5183;51.190;6.820;2024-02-16T10:59:01;7.80;;;4.27;;
10275;SDS011;5183;51.190;6.820;2024-02-16T11:01:31;5.90;;;4.10;;
10275;SDS011;5183;51.190;6.820;2024-02-16T11:04:03;5.33;;;3.73;;
10275;SDS011;5183;51.190;6.820;2024-02-16T11:06:35;8.47;;;3.90;;
10275;SDS011;5183;51.190;6.820;2024-02-16T11:09:11;6.27;;;4.00;;
10275;SDS011;5183;51.190;6.820;2024-02-16T11:11:51;7.03;;;4.20;;
10275;SDS011;5183;51.190;6.820;2024-02-16T11:14:21;8.23;;;4.27;;
10275;SDS011;5183;51.190;6.820;2024-02-16T11:16:48;7.57;;;5.10;;
10275;SDS011;5183;51.190;6.820;2024-02-16T11:19:16;7.73;;;5.80;;
10275;SDS011;5183;51.190;6.820;2024-02-16T11:21:54;5.80;;;4.10;;
10275;SDS011;5183;51.190;6.820;2024-02-16T11:24:27;8.93;;;4.40;;
10275;SDS011;5183;51.190;6.820;2024-02-16T11:26:56;6.93;;;4.03;;
10275;SDS011;5183;51.190;6.820;2024-02-16T11:29:24;9.00;;;4.20;;
10275;SDS011;5183;51.190;6.820;2024-02-16T11:31:52;7.97;;;3.77;;
10275;SDS011;5183;51.190;6.820;2024-02-16T11:34:22;7.23;;;4.27;;
10275;SDS011;5183;51.190;6.820;2024-02-16T11:36:51;6.60;;;4.17;;
10275;SDS011;5183;51.190;6.820;2024-02-16T11:39:19;7.77;;;4.00;;
10275;SDS011;5183;51.190;6.820;2024-02-16T11:41:47;5.23;;;4.13;;
10275;SDS011;5183;51.190;6.820;2024-02-16T11:44:26;7.57;;;4.00;;
10275;SDS011;5183;51.190;6.820;2024-02-16T11:46:53;8.67;;;4.50;;
10275;SDS011;5183;51.190;6.820;2024-02-16T11:49:20;9.17;;;4.30;;
10275;SDS011;5183;51.190;6.820;2024-02-16T11:51:47;7.67;;;4.90;;
10275;SDS011;5183;51.190;6.820;2024-02-16T11:54:14;7.20;;;4.37;;
10275;SDS011;5183;51.190;6.820;2024-02-16T11:56:42;4.93;;;4.00;;
10275;SDS011;5183;51.190;6.820;2024-02-16T11:59:11;4.90;;;3.63;;
10275;SDS011;5183;51.190;6.820;2024-02-16T12:01:49;7.10;;;4.10;;
10275;SDS011;5183;51.190;6.820;2024-02-16T12:04:20;5.87;;;3.67;;
10275;SDS011;5183;51.190;6.820;2024-02-16T12:06:50;6.23;;;3.97;;
10275;SDS011;5183;51.190;6.820;2024-02-16T12:09:18;6.37;;;3.97;;
10275;SDS011;5183;51.190;6.820;2024-02-16T12:11:45;7.27;;;4.70;;
10275;SDS011;5183;51.190;6.820;2024-02-16T12:14:12;9.47;;;4.60;;
10275;SDS011;5183;51.190;6.820;2024-02-16T12:16:39;12.03;;;4.77;;
10275;SDS011;5183;51.190;6.820;2024-02-16T12:19:07;8.13;;;4.73;;
10275;SDS011;5183;51.190;6.820;2024-02-16T12:21:36;10.80;;;4.90;;
10275;SDS011;5183;51.190;6.820;2024-02-16T12:24:05;7.67;;;4.60;;
10275;SDS011;5183;51.190;6.820;2024-02-16T12:26:33;9.43;;;4.23;;
10275;SDS011;5183;51.190;6.820;2024-02-16T12:29:00;9.33;;;4.77;;
10275;SDS011;5183;51.190;6.820;2024-02-16T12:31:26;8.90;;;4.40;;
10275;SDS011;5183;51.190;6.820;2024-02-16T12:33:54;7.90;;;4.70;;
10275;SDS011;5183;51.190;6.820;2024-02-16T12:36:22;6.73;;;4.30;;
10275;SDS011;5183;51.190;6.820;2024-02-16T12:38:49;11.57;;;4.87;;
10275;SDS011;5183;51.190;6.820;2024-02-16T12:41:16;9.20;;;4.47;;
10275;SDS011;5183;51.190;6.820;2024-02-16T12:43:42;7.60;;;5.00;;
10275;SDS011;5183;51.190;6.820;2024-02-16T12:46:09;6.10;;;4.47;;
10275;SDS011;5183;51.190;6.820;2024-02-16T12:48:36;9.30;;;4.93;;
10275;SDS011;5183;51.190;6.820;2024-02-16T12:51:03;11.37;;;5.37;;
10275;SDS011;5183;51.190;6.820;2024-02-16T12:53:31;7.07;;;5.13;;
10275;SDS011;5183;51.190;6.820;2024-02-16T12:56:05;9.30;;;5.10;;
10275;SDS011;5183;51.190;6.820;2024-02-16T12:58:33;9.53;;;5.40;;
10275;SDS011;5183;51.190;6.820;2024-02-16T13:01:00;8.20;;;5.50;;
10275;SDS011;5183;51.190;6.820;2024-02-16T13:03:27;10.20;;;5.40;;
10275;SDS011;5183;51.190;6.820;2024-02-16T13:05:54;8.27;;;5.60;;
10275;SDS011;5183;51.190;6.820;2024-02-16T13:08:22;10.07;;;5.80;;
10275;SDS011;5183;51.190;6.820;2024-02-16T13:10:50;9.27;;;5.87;;
10275;SDS011;5183;51.190;6.820;2024-02-16T13:13:17;9.43;;;5.37;;
10275;SDS011;5183;51.190;6.820;2024-02-16T13:15:44;9.13;;;5.30;;
10275;SDS011;5183;51.190;6.820;2024-02-16T13:18:11;6.23;;;5.20;;
10275;SDS011;5183;51.190;6.820;2024-02-16T13:20:38;9.90;;;5.73;;
10275;SDS011;5183;51.190;6.820;2024-02-16T13:23:05;8.30;;;5.67;;
10275;SDS011;5183;51.190;6.820;2024-02-16T13:25:32;10.90;;;6.00;;
10275;SDS011;5183;51.190;6.820;2024-02-16T13:28:00;6.47;;;5.43;;
10275;SDS011;5183;51.190;6.820;2024-02-16T13:30:27;7.73;;;5.20;;
10275;SDS011;5183;51.190;6.820;2024-02-16T13:32:55;8.87;;;5.87;;
10275;SDS011;5183;51.190;6.820;2024-02-16T13:35:22;10.07;;;6.63;;
10275;SDS011;5183;51.190;6.820;2024-02-16T13:37:49;8.10;;;6.30;;
10275;SDS011;5183;51.190;6.820;2024-02-16T13:40:16;9.03;;;6.50;;
10275;SDS011;5183;51.190;6.820;2024-02-16T13:42:43;9.77;;;6.47;;
10275;SDS011;5183;51.190;6.820;2024-02-16T13:45:12;9.73;;;6.90;;
10275;SDS011;5183;51.190;6.820;2024-02-16T13:47:39;10.10;;;6.40;;
10275;SDS011;5183;51.190;6.820;2024-02-16T13:50:06;12.37;;;8.13;;
10275;SDS011;5183;51.190;6.820;2024-02-16T13:52:33;9.83;;;6.77;;
10275;SDS011;5183;51.190;6.820;2024-02-16T13:55:01;10.10;;;7.40;;
10275;SDS011;5183;51.190;6.820;2024-02-16T13:57:28;9.63;;;7.40;;
10275;SDS011;5183;51.190;6.820;2024-02-16T13:59:55;12.00;;;8.20;;
10275;SDS011;5183;51.190;6.820;2024-02-16T14:02:23;10.47;;;7.40;;
10275;SDS011;5183;51.190;6.820;2024-02-16T14:04:50;11.93;;;7.90;;
10275;SDS011;5183;51.190;6.820;2024-02-16T14:07:17;12.40;;;7.97;;
10275;SDS011;5183;51.190;6.820;2024-02-16T14:09:44;10.03;;;7.90;;
10275;SDS011;5183;51.190;6.820;2024-02-16T14:12:11;13.63;;;8.80;;
10275;SDS011;5183;51.190;6.820;2024-02-16T14:14:38;11.77;;;8.70;;
10275;SDS011;5183;51.190;6.820;2024-02-16T14:17:05;10.50;;;9.17;;
10275;SDS011;5183;51.190;6.820;2024-02-16T14:19:33;10.30;;;8.37;;
10275;SDS011;5183;51.190;6.820;2024-02-16T14:22:02;12.73;;;9.20;;
10275;SDS011;5183;51.190;6.820;2024-02-16T14:24:32;10.30;;;8.90;;
10275;SDS011;5183;51.190;6.820;2024-02-16T14:26:58;12.57;;;9.47;;
10275;SDS011;5183;51.190;6.820;2024-02-16T14:29:25;10.17;;;9.10;;
10275;SDS011;5183;51.190;6.820;2024-02-16T14:31:54;13.30;;;9.40;;
10275;SDS011;5183;51.190;6.820;2024-02-16T14:34:21;11.27;;;9.50;;
10275;SDS011;5183;51.190;6.820;2024-02-16T14:36:49;10.80;;;9.67;;
10275;SDS011;5183;51.190;6.820;2024-02-16T14:39:16;12.23;;;9.87;;
10275;SDS011;5183;51.190;6.820;2024-02-16T14:41:43;13.03;;;10.47;;
10275;SDS011;5183;51.190;6.820;2024-02-16T14:44:09;12.32;;;10.63;;
10275;SDS011;5183;51.190;6.820;2024-02-16T14:46:36;11.50;;;9.57;;
10275;SDS011;5183;51.190;6.820;2024-02-16T14:49:03;12.20;;;10.90;;
10275;SDS011;5183;51.190;6.820;2024-02-16T14:51:33;13.55;;;10.70;;
10275;SDS011;5183;51.190;6.820;2024-02-16T14:54:02;10.37;;;9.20;;
10275;SDS011;5183;51.190;6.820;2024-02-16T14:56:29;10.90;;;9.37;;
10275;SDS011;5183;51.190;6.820;2024-02-16T14:58:56;10.53;;;9.43;;
10275;SDS011;5183;51.190;6.820;2024-02-16T15:01:23;11.55;;;9.85;;
10275;SDS011;5183;51.190;6.820;2024-02-16T15:03:51;10.10;;;9.07;;